Time;durP1;ratioP1;P1;durP2;ratioP2;P2;SDS_P1;SDS_P2;PMS_P1;PMS_P2;Temp;Humidity;BMP_temperature;BMP_pressure;BME280_temperature;BME280_humidity;BME280_pressure;Samples;Min_cycle;Max_cycle;Signal;HPM_P1;HPM_P2
2023/04/19 00:01:23;;;;;;;15.70;10.00;;;;;;;;;;5041312;28;20387;-58
2023/04/19 00:03:49;;;;;;;14.95;10.18;;;;;;;;;;5038284;28;20041;-56
2023/04/19 00:06:16;;;;;;;14.95;10.25;;;;;;;;;;5038033;28;20053;-55
2023/04/19 00:08:42;;;;;;;23.80;12.75;;;;;;;;;;5035814;28;20414;-56
2023/04/19 00:11:09;;;;;;;16.67;10.05;;;;;;;;;;5034865;28;20056;-56
2023/04/19 00:13:35;;;;;;;17.65;10.73;;;;;;;;;;5038627;28;20052;-56
2023/04/19 00:16:01;;;;;;;16.60;10.13;;;;;;;;;;5039012;28;20033;-56
2023/04/19 00:18:28;;;;;;;16.45;10.55;;;;;;;;;;5043125;28;20398;-56
2023/04/19 00:20:55;;;;;;;16.50;11.00;;;;;;;;;;5039022;28;20136;-56
2023/04/19 00:23:21;;;;;;;19.83;11.23;;;;;;;;;;5039027;28;20029;-56
2023/04/19 00:25:48;;;;;;;19.42;10.93;;;;;;;;;;5040676;28;20052;-56
2023/04/19 00:28:15;;;;;;;18.50;10.90;;;;;;;;;;5038827;28;20053;-55
2023/04/19 00:30:42;;;;;;;19.08;11.10;;;;;;;;;;5038667;28;20032;-57
2023/04/19 00:33:11;;;;;;;16.65;10.75;;;;;;;;;;5021309;28;20044;-57
2023/04/19 00:35:40;;;;;;;19.02;11.73;;;;;;;;;;5037411;28;20053;-57
2023/04/19 00:38:07;;;;;;;18.23;11.07;;;;;;;;;;5043543;28;20047;-56
2023/04/19 00:40:33;;;;;;;16.65;10.98;;;;;;;;;;5041352;28;20033;-57
2023/04/19 00:42:59;;;;;;;20.08;11.95;;;;;;;;;;5044558;28;20048;-57
2023/04/19 00:45:25;;;;;;;19.95;11.45;;;;;;;;;;5035175;28;20033;-57
2023/04/19 00:47:52;;;;;;;17.15;10.90;;;;;;;;;;5048419;28;20033;-57
2023/04/19 00:50:19;;;;;;;19.48;11.98;;;;;;;;;;5034087;28;20053;-55
2023/04/19 00:52:45;;;;;;;20.25;11.52;;;;;;;;;;5032582;28;20100;-57
2023/04/19 00:55:12;;;;;;;19.52;11.43;;;;;;;;;;5039488;28;20045;-55
2023/04/19 00:57:38;;;;;;;18.30;10.85;;;;;;;;;;5044982;28;20536;-56
2023/04/19 01:00:07;;;;;;;18.45;11.05;;;;;;;;;;5017503;28;20403;-56
2023/04/19 01:02:33;;;;;;;19.50;10.88;;;;;;;;;;5032836;28;20044;-56
2023/04/19 01:04:59;;;;;;;19.63;11.80;;;;;;;;;;5033695;28;20045;-56
2023/04/19 01:07:26;;;;;;;20.38;11.70;;;;;;;;;;5033981;28;20029;-56
2023/04/19 01:09:52;;;;;;;19.83;11.45;;;;;;;;;;5036762;28;20041;-56
2023/04/19 01:12:21;;;;;;;19.27;11.23;;;;;;;;;;5044004;28;20475;-55
2023/04/19 01:14:49;;;;;;;21.70;11.48;;;;;;;;;;5041529;28;20299;-55
2023/04/19 01:17:18;;;;;;;21.60;13.07;;;;;;;;;;5043979;28;20032;-55
2023/04/19 01:19:45;;;;;;;22.70;12.55;;;;;;;;;;5032563;28;20036;-56
2023/04/19 01:22:23;;;;;;;24.15;12.63;;;;;;;;;;5033489;28;20034;-56
2023/04/19 01:24:50;;;;;;;21.00;12.43;;;;;;;;;;5038191;28;20407;-56
2023/04/19 01:27:16;;;;;;;22.45;12.38;;;;;;;;;;5042855;28;20037;-56
2023/04/19 01:29:42;;;;;;;20.35;12.25;;;;;;;;;;5037050;28;20053;-56
2023/04/19 01:32:08;;;;;;;19.30;11.38;;;;;;;;;;5041954;28;20052;-56
2023/04/19 01:34:35;;;;;;;24.15;12.13;;;;;;;;;;5041768;28;20044;-56
2023/04/19 01:37:03;;;;;;;21.48;11.82;;;;;;;;;;5041500;28;20064;-55
2023/04/19 01:39:30;;;;;;;19.75;11.13;;;;;;;;;;5039794;28;20072;-58
2023/04/19 01:41:56;;;;;;;19.65;11.35;;;;;;;;;;5033020;28;20056;-57
2023/04/19 01:44:22;;;;;;;22.10;12.85;;;;;;;;;;5034350;28;20525;-56
2023/04/19 01:46:48;;;;;;;22.88;12.63;;;;;;;;;;5038761;28;20060;-58
2023/04/19 01:49:15;;;;;;;21.20;11.93;;;;;;;;;;5037393;28;20068;-55
2023/04/19 01:51:42;;;;;;;21.48;12.27;;;;;;;;;;5037344;28;20045;-57
2023/04/19 01:54:08;;;;;;;23.67;12.73;;;;;;;;;;5045095;28;20033;-58
2023/04/19 01:56:35;;;;;;;22.05;12.23;;;;;;;;;;5040807;28;20049;-58
2023/04/19 01:59:01;;;;;;;21.15;12.40;;;;;;;;;;5031852;28;20040;-57
2023/04/19 02:01:27;;;;;;;18.83;11.32;;;;;;;;;;5034283;28;20059;-57
2023/04/19 02:03:53;;;;;;;21.38;12.98;;;;;;;;;;5039315;28;20443;-57
2023/04/19 02:06:19;;;;;;;22.40;12.52;;;;;;;;;;5043233;28;20053;-57
2023/04/19 02:08:47;;;;;;;21.70;12.85;;;;;;;;;;5040256;28;20041;-56
2023/04/19 02:11:13;;;;;;;20.30;11.68;;;;;;;;;;5041921;28;20047;-57
2023/04/19 02:13:40;;;;;;;20.73;11.68;;;;;;;;;;5041593;28;20033;-56
2023/04/19 02:16:07;;;;;;;22.65;12.32;;;;;;;;;;5029517;28;20044;-57
2023/04/19 02:18:39;;;;;;;24.65;13.45;;;;;;;;;;5038897;28;20036;-57
2023/04/19 02:21:07;;;;;;;23.10;12.48;;;;;;;;;;5042179;28;20424;-56
2023/04/19 02:23:34;;;;;;;22.85;13.20;;;;;;;;;;5035970;28;20052;-56
2023/04/19 02:26:02;;;;;;;19.80;11.93;;;;;;;;;;5037211;28;20041;-56
2023/04/19 02:28:31;;;;;;;23.67;12.25;;;;;;;;;;5029678;28;20037;-56
2023/04/19 02:30:58;;;;;;;22.00;12.50;;;;;;;;;;5035548;28;20049;-56
2023/04/19 02:33:25;;;;;;;21.10;12.18;;;;;;;;;;5035558;28;20506;-56
2023/04/19 02:35:52;;;;;;;25.42;12.93;;;;;;;;;;5039392;28;20048;-55
2023/04/19 02:38:18;;;;;;;21.45;12.15;;;;;;;;;;5044581;28;20036;-55
2023/04/19 02:40:44;;;;;;;22.85;12.75;;;;;;;;;;5041934;28;20051;-55
2023/04/19 02:43:10;;;;;;;22.75;12.90;;;;;;;;;;5043707;28;20045;-56
2023/04/19 02:45:36;;;;;;;22.63;12.57;;;;;;;;;;5038609;28;20045;-57
2023/04/19 02:48:03;;;;;;;22.30;12.00;;;;;;;;;;5045508;28;20424;-55
2023/04/19 02:50:29;;;;;;;22.73;12.90;;;;;;;;;;5048712;28;20059;-56
2023/04/19 02:52:57;;;;;;;23.38;12.82;;;;;;;;;;5034153;28;20045;-56
2023/04/19 02:55:24;;;;;;;24.33;12.68;;;;;;;;;;5036747;28;20521;-56
2023/04/19 02:58:00;;;;;;;22.00;11.50;;;;;;;;;;5045144;28;20112;-56
2023/04/19 03:00:26;;;;;;;22.52;13.13;;;;;;;;;;5037752;28;20028;-56
2023/04/19 03:03:03;;;;;;;22.27;12.43;;;;;;;;;;5042960;28;20041;-56
2023/04/19 03:05:30;;;;;;;22.90;12.70;;;;;;;;;;5039129;28;20045;-57
2023/04/19 03:07:56;;;;;;;25.20;13.27;;;;;;;;;;5034927;28;20060;-57
2023/04/19 03:10:23;;;;;;;22.40;12.45;;;;;;;;;;5033291;28;20418;-56
2023/04/19 03:12:49;;;;;;;21.65;12.85;;;;;;;;;;5039835;28;20060;-57
2023/04/19 03:15:17;;;;;;;23.40;12.25;;;;;;;;;;5044128;28;20059;-57
2023/04/19 03:17:44;;;;;;;23.92;12.65;;;;;;;;;;5041969;28;20490;-57
2023/04/19 03:20:11;;;;;;;25.13;12.85;;;;;;;;;;5038384;28;20066;-56
2023/04/19 03:22:38;;;;;;;23.88;12.50;;;;;;;;;;5039442;28;20522;-56
2023/04/19 03:25:04;;;;;;;25.02;13.30;;;;;;;;;;5024872;28;20037;-57
2023/04/19 03:27:33;;;;;;;21.52;12.07;;;;;;;;;;5043615;28;20029;-56
2023/04/19 03:30:04;;;;;;;26.17;14.27;;;;;;;;;;5042230;28;20056;-57
2023/04/19 03:32:31;;;;;;;23.13;13.38;;;;;;;;;;5028780;28;20033;-57
2023/04/19 03:34:57;;;;;;;24.30;13.63;;;;;;;;;;5042584;28;20037;-57
2023/04/19 03:37:23;;;;;;;25.23;13.93;;;;;;;;;;5035453;28;20028;-57
2023/04/19 03:39:49;;;;;;;26.25;13.65;;;;;;;;;;5042094;28;20025;-56
2023/04/19 03:42:22;;;;;;;25.38;13.55;;;;;;;;;;5033796;28;20048;-57
2023/04/19 03:44:56;;;;;;;24.83;13.85;;;;;;;;;;5037065;28;20050;-57
2023/04/19 03:47:23;;;;;;;26.17;14.27;;;;;;;;;;5036920;28;20052;-57
2023/04/19 03:49:51;;;;;;;23.42;13.73;;;;;;;;;;5033721;28;20522;-57
2023/04/19 03:52:17;;;;;;;26.50;14.27;;;;;;;;;;5040735;28;20487;-57
2023/04/19 03:54:44;;;;;;;23.00;13.20;;;;;;;;;;5036174;28;20105;-57
2023/04/19 03:57:22;;;;;;;24.90;13.73;;;;;;;;;;5038451;28;20056;-56
2023/04/19 03:59:49;;;;;;;24.40;13.90;;;;;;;;;;5027524;28;20037;-56
2023/04/19 04:02:16;;;;;;;26.23;13.80;;;;;;;;;;5046702;28;20048;-58
2023/04/19 04:04:42;;;;;;;23.50;13.55;;;;;;;;;;5044149;28;20044;-57
2023/04/19 04:07:09;;;;;;;25.98;13.82;;;;;;;;;;5039827;28;20037;-56
2023/04/19 04:09:35;;;;;;;24.33;13.20;;;;;;;;;;5044053;28;20040;-56
2023/04/19 04:12:02;;;;;;;24.85;14.30;;;;;;;;;;5026588;28;20044;-56
2023/04/19 04:14:29;;;;;;;23.92;13.43;;;;;;;;;;5044255;28;20418;-56
2023/04/19 04:16:55;;;;;;;24.60;13.27;;;;;;;;;;5047347;28;20036;-55
2023/04/19 04:19:21;;;;;;;24.63;14.00;;;;;;;;;;5045427;28;20045;-56
2023/04/19 04:21:48;;;;;;;25.42;14.38;;;;;;;;;;5049003;28;20478;-56
2023/04/19 04:24:16;;;;;;;23.98;13.60;;;;;;;;;;5044508;28;20045;-56
2023/04/19 04:26:56;;;;;;;24.35;13.23;;;;;;;;;;5036915;28;20051;-55
2023/04/19 04:29:26;;;;;;;22.88;13.70;;;;;;;;;;5043303;28;20033;-55
2023/04/19 04:31:56;;;;;;;25.55;14.02;;;;;;;;;;5037697;28;20036;-55
2023/04/19 04:34:26;;;;;;;27.02;14.43;;;;;;;;;;5042804;28;20051;-56
2023/04/19 04:37:02;;;;;;;31.88;16.15;;;;;;;;;;5037129;28;20053;-55
2023/04/19 04:39:29;;;;;;;34.17;15.75;;;;;;;;;;5044337;28;20056;-56
2023/04/19 04:41:58;;;;;;;31.33;15.70;;;;;;;;;;5037255;28;20498;-56
2023/04/19 04:44:24;;;;;;;34.67;16.67;;;;;;;;;;5038181;28;20045;-56
2023/04/19 04:46:51;;;;;;;36.40;17.80;;;;;;;;;;5035649;28;20400;-56
2023/04/19 04:49:23;;;;;;;35.83;17.10;;;;;;;;;;5034099;28;20040;-57
2023/04/19 04:51:49;;;;;;;36.72;17.27;;;;;;;;;;5036268;28;20052;-57
2023/04/19 04:54:16;;;;;;;33.75;17.55;;;;;;;;;;5038035;28;20052;-57
2023/04/19 04:56:43;;;;;;;40.67;18.45;;;;;;;;;;5042615;28;20037;-57
2023/04/19 04:59:10;;;;;;;38.78;19.17;;;;;;;;;;5037059;28;20040;-57
2023/04/19 05:01:39;;;;;;;41.22;18.92;;;;;;;;;;5041070;28;20049;-56
2023/04/19 05:04:05;;;;;;;42.45;20.00;;;;;;;;;;5038753;28;20056;-56
2023/04/19 05:06:32;;;;;;;42.17;18.95;;;;;;;;;;5033236;28;20048;-56
2023/04/19 05:08:58;;;;;;;34.58;16.95;;;;;;;;;;5040925;28;20049;-57
2023/04/19 05:11:33;;;;;;;33.03;16.88;;;;;;;;;;5040401;28;20052;-57
2023/04/19 05:13:59;;;;;;;28.92;16.08;;;;;;;;;;5043205;28;20392;-56
2023/04/19 05:16:26;;;;;;;26.27;13.68;;;;;;;;;;5039229;28;20045;-56
2023/04/19 05:18:52;;;;;;;26.35;14.23;;;;;;;;;;5033615;28;20045;-55
2023/04/19 05:21:18;;;;;;;28.08;15.02;;;;;;;;;;5037217;28;20036;-56
2023/04/19 05:23:45;;;;;;;29.20;14.85;;;;;;;;;;5040805;28;20510;-55
2023/04/19 05:26:14;;;;;;;34.35;17.33;;;;;;;;;;5037035;28;20506;-56
2023/04/19 05:28:44;;;;;;;36.15;17.10;;;;;;;;;;5042159;28;20086;-56
2023/04/19 05:31:17;;;;;;;28.75;15.50;;;;;;;;;;5040495;28;20134;-56
2023/04/19 05:33:55;;;;;;;28.33;15.48;;;;;;;;;;5043397;28;20040;-56
2023/04/19 05:36:21;;;;;;;34.78;16.98;;;;;;;;;;5041923;28;20036;-56
2023/04/19 05:38:47;;;;;;;31.65;16.27;;;;;;;;;;5029609;28;20399;-56
2023/04/19 05:41:14;;;;;;;35.75;18.30;;;;;;;;;;5023262;28;20502;-56
2023/04/19 05:43:40;;;;;;;37.50;17.75;;;;;;;;;;5032340;28;20044;-56
2023/04/19 05:46:07;;;;;;;33.25;17.33;;;;;;;;;;5032645;28;20041;-56
2023/04/19 05:48:33;;;;;;;33.83;17.20;;;;;;;;;;5046682;28;20037;-56
2023/04/19 05:51:27;;;;;;;35.72;16.98;;;;;;;;;;5028820;28;20048;-56
2023/04/19 05:54:11;;;;;;;39.05;17.88;;;;;;;;;;5044425;28;20040;-57
2023/04/19 05:56:39;;;;;;;45.03;19.25;;;;;;;;;;5031825;28;20052;-57
2023/04/19 05:59:05;;;;;;;45.92;21.05;;;;;;;;;;5021209;28;20045;-57
2023/04/19 06:01:32;;;;;;;57.60;22.63;;;;;;;;;;5040435;28;20052;-57
2023/04/19 06:03:58;;;;;;;51.80;21.95;;;;;;;;;;5038920;28;20077;-57
2023/04/19 06:06:24;;;;;;;46.95;19.67;;;;;;;;;;5046458;28;20044;-56
2023/04/19 06:08:50;;;;;;;54.67;21.55;;;;;;;;;;5046258;28;20053;-57
2023/04/19 06:11:16;;;;;;;34.90;16.65;;;;;;;;;;5044107;28;20041;-56
2023/04/19 06:13:43;;;;;;;28.60;14.85;;;;;;;;;;5046361;28;20502;-57
2023/04/19 06:16:10;;;;;;;31.58;16.27;;;;;;;;;;5045598;28;20069;-57
2023/04/19 06:18:37;;;;;;;31.27;15.50;;;;;;;;;;5050163;28;20051;-57
2023/04/19 06:21:03;;;;;;;36.25;17.83;;;;;;;;;;5046730;28;20514;-57
2023/04/19 06:23:29;;;;;;;36.65;17.48;;;;;;;;;;5043049;28;20088;-57
2023/04/19 06:25:55;;;;;;;28.13;15.13;;;;;;;;;;5046152;28;20037;-55
2023/04/19 06:28:21;;;;;;;29.05;14.98;;;;;;;;;;5046856;28;20052;-55
2023/04/19 06:30:47;;;;;;;25.10;14.23;;;;;;;;;;5039888;28;20045;-56
2023/04/19 06:33:13;;;;;;;31.63;16.73;;;;;;;;;;5040601;28;20037;-57
2023/04/19 06:35:40;;;;;;;32.33;16.33;;;;;;;;;;5040878;28;20387;-56
2023/04/19 06:38:06;;;;;;;27.27;15.52;;;;;;;;;;5027878;28;20061;-57
2023/04/19 06:40:33;;;;;;;26.13;15.07;;;;;;;;;;5037641;28;20068;-57
2023/04/19 06:42:59;;;;;;;26.95;14.13;;;;;;;;;;5036621;28;20045;-56
2023/04/19 06:45:25;;;;;;;28.73;15.55;;;;;;;;;;5055751;28;20032;-56
2023/04/19 06:47:51;;;;;;;26.48;14.15;;;;;;;;;;5051134;28;20045;-56
2023/04/19 06:50:18;;;;;;;28.75;15.38;;;;;;;;;;5052290;28;20044;-56
2023/04/19 06:52:44;;;;;;;27.58;15.23;;;;;;;;;;5050469;28;20078;-56
2023/04/19 06:55:10;;;;;;;29.55;15.30;;;;;;;;;;5038513;28;20029;-55
2023/04/19 06:57:36;;;;;;;27.50;14.25;;;;;;;;;;5040737;28;20033;-56
2023/04/19 07:00:05;;;;;;;27.92;14.75;;;;;;;;;;5044078;28;20029;-56
2023/04/19 07:02:31;;;;;;;27.83;15.30;;;;;;;;;;5046580;28;20041;-56
2023/04/19 07:04:57;;;;;;;26.02;14.18;;;;;;;;;;5045758;28;20048;-56
2023/04/19 07:07:23;;;;;;;27.65;14.73;;;;;;;;;;5048974;28;20057;-55
2023/04/19 07:09:49;;;;;;;26.50;14.57;;;;;;;;;;5048313;28;20109;-56
2023/04/19 07:12:15;;;;;;;29.77;14.82;;;;;;;;;;5049549;28;20483;-55
2023/04/19 07:14:42;;;;;;;26.95;14.55;;;;;;;;;;5046987;28;20021;-56
2023/04/19 07:17:08;;;;;;;23.45;13.80;;;;;;;;;;5049293;28;20052;-57
2023/04/19 07:19:35;;;;;;;25.75;14.15;;;;;;;;;;5048337;28;20048;-56
2023/04/19 07:22:02;;;;;;;22.80;13.05;;;;;;;;;;5048763;28;20053;-53
2023/04/19 07:24:29;;;;;;;26.48;13.65;;;;;;;;;;5034113;28;20033;-57
2023/04/19 07:26:56;;;;;;;25.40;13.23;;;;;;;;;;5038340;28;20041;-58
2023/04/19 07:29:22;;;;;;;27.27;14.27;;;;;;;;;;5043099;28;20499;-57
2023/04/19 07:31:48;;;;;;;25.40;14.27;;;;;;;;;;5044379;28;20049;-57
2023/04/19 07:34:14;;;;;;;27.40;14.93;;;;;;;;;;5040193;28;20056;-57
2023/04/19 07:36:40;;;;;;;26.73;13.57;;;;;;;;;;5044899;28;20040;-57
2023/04/19 07:39:07;;;;;;;25.02;13.75;;;;;;;;;;5041393;28;20031;-57
2023/04/19 07:41:33;;;;;;;26.00;13.93;;;;;;;;;;5040259;28;20060;-57
2023/04/19 07:43:59;;;;;;;23.40;13.35;;;;;;;;;;5032743;28;20033;-57
2023/04/19 07:46:25;;;;;;;22.80;13.05;;;;;;;;;;5038034;28;20033;-55
2023/04/19 07:48:51;;;;;;;27.17;14.00;;;;;;;;;;5034405;28;20044;-55
2023/04/19 07:51:18;;;;;;;23.20;12.40;;;;;;;;;;5034441;28;20555;-56
2023/04/19 07:53:45;;;;;;;24.25;12.75;;;;;;;;;;5032292;28;20141;-56
2023/04/19 07:56:12;;;;;;;22.67;12.40;;;;;;;;;;5043266;28;20049;-56
2023/04/19 07:58:38;;;;;;;23.85;12.57;;;;;;;;;;5038104;28;20060;-56
2023/04/19 08:01:04;;;;;;;21.02;12.20;;;;;;;;;;5042363;28;20045;-56
2023/04/19 08:03:32;;;;;;;25.73;13.02;;;;;;;;;;5044791;28;20036;-55
2023/04/19 08:06:04;;;;;;;25.02;13.10;;;;;;;;;;5046378;28;20041;-56
2023/04/19 08:08:30;;;;;;;22.60;13.13;;;;;;;;;;5043809;28;20040;-57
2023/04/19 08:10:56;;;;;;;22.55;12.18;;;;;;;;;;5042390;28;20064;-57
2023/04/19 08:13:22;;;;;;;24.30;13.27;;;;;;;;;;5049966;28;20036;-56
2023/04/19 08:15:48;;;;;;;23.17;12.23;;;;;;;;;;5045096;28;20029;-56
2023/04/19 08:18:15;;;;;;;23.40;13.07;;;;;;;;;;5038321;28;20052;-56
2023/04/19 08:20:41;;;;;;;25.40;12.73;;;;;;;;;;5041853;28;20036;-56
2023/04/19 08:23:08;;;;;;;23.85;12.75;;;;;;;;;;5039561;28;20414;-57
2023/04/19 08:25:34;;;;;;;18.77;11.43;;;;;;;;;;5042517;28;20037;-56
2023/04/19 08:28:00;;;;;;;20.52;11.45;;;;;;;;;;5040520;28;20045;-56
2023/04/19 08:30:27;;;;;;;20.13;11.80;;;;;;;;;;5036731;28;20060;-56
2023/04/19 08:32:53;;;;;;;20.30;11.13;;;;;;;;;;5039280;28;20514;-56
2023/04/19 08:35:20;;;;;;;19.20;11.48;;;;;;;;;;5044819;28;20028;-57
2023/04/19 08:37:47;;;;;;;21.92;11.65;;;;;;;;;;5049900;28;20044;-56
2023/04/19 08:40:13;;;;;;;17.85;11.02;;;;;;;;;;5041190;28;20040;-57
2023/04/19 08:42:40;;;;;;;23.52;11.82;;;;;;;;;;5047645;28;20041;-56
2023/04/19 08:45:07;;;;;;;20.15;11.93;;;;;;;;;;5046183;28;20072;-57
2023/04/19 08:47:34;;;;;;;21.63;12.05;;;;;;;;;;5055364;28;20028;-57
2023/04/19 08:50:02;;;;;;;20.10;11.95;;;;;;;;;;5053737;28;20040;-57
2023/04/19 08:52:29;;;;;;;20.40;12.05;;;;;;;;;;5034571;28;20045;-57
2023/04/19 08:54:56;;;;;;;18.73;10.90;;;;;;;;;;5039322;28;20632;-57
2023/04/19 08:57:22;;;;;;;21.10;11.70;;;;;;;;;;5041270;28;20029;-57
2023/04/19 08:59:54;;;;;;;19.90;10.95;;;;;;;;;;5044299;28;20037;-57
2023/04/19 09:02:21;;;;;;;19.30;11.90;;;;;;;;;;5040875;28;20039;-56
2023/04/19 09:04:47;;;;;;;20.52;11.63;;;;;;;;;;5042102;28;20045;-56
2023/04/19 09:07:27;;;;;;;20.42;11.82;;;;;;;;;;5039323;28;20033;-56
2023/04/19 09:10:06;;;;;;;21.90;11.85;;;;;;;;;;5043713;28;20040;-57
2023/04/19 09:12:33;;;;;;;20.13;11.13;;;;;;;;;;5044677;28;20112;-56
2023/04/19 09:15:02;;;;;;;19.33;11.98;;;;;;;;;;5038710;28;20037;-57
2023/04/19 09:17:30;;;;;;;21.08;11.93;;;;;;;;;;5048458;28;20029;-57
2023/04/19 09:19:57;;;;;;;19.00;10.75;;;;;;;;;;5039060;28;20399;-57
2023/04/19 09:22:24;;;;;;;16.75;10.60;;;;;;;;;;5033821;28;20416;-57
2023/04/19 09:24:51;;;;;;;20.88;10.73;;;;;;;;;;5031824;28;20061;-57
2023/04/19 09:27:43;;;;;;;18.63;11.15;;;;;;;;;;5038266;28;20087;-57
2023/04/19 09:30:10;;;;;;;18.70;10.38;;;;;;;;;;5039384;28;20044;-58
2023/04/19 09:32:47;;;;;;;17.95;10.43;;;;;;;;;;5042408;28;20650;-58
2023/04/19 09:35:13;;;;;;;16.15;9.95;;;;;;;;;;5037420;28;20506;-58
2023/04/19 09:37:40;;;;;;;17.10;10.88;;;;;;;;;;5040342;28;20070;-57
2023/04/19 09:40:26;;;;;;;16.00;10.30;;;;;;;;;;5041151;28;20049;-57
2023/04/19 09:42:53;;;;;;;20.98;11.25;;;;;;;;;;5039997;28;20537;-58
2023/04/19 09:45:19;;;;;;;17.88;11.13;;;;;;;;;;5042231;28;20371;-57
2023/04/19 09:48:00;;;;;;;18.52;10.75;;;;;;;;;;5034077;28;20502;-57
2023/04/19 09:50:26;;;;;;;17.45;10.52;;;;;;;;;;5031437;28;20048;-57
2023/04/19 09:52:52;;;;;;;19.30;11.10;;;;;;;;;;5031894;28;20463;-58
2023/04/19 09:55:19;;;;;;;19.80;10.65;;;;;;;;;;5041125;28;20520;-58
2023/04/19 09:57:45;;;;;;;18.13;10.75;;;;;;;;;;5046072;28;20415;-58
2023/04/19 10:00:14;;;;;;;18.88;10.93;;;;;;;;;;5045070;28;20033;-56
2023/04/19 10:02:41;;;;;;;17.58;10.43;;;;;;;;;;5041416;28;20624;-57
2023/04/19 10:05:08;;;;;;;15.38;10.05;;;;;;;;;;5044365;28;20057;-56
2023/04/19 10:07:36;;;;;;;16.25;10.85;;;;;;;;;;5035576;28;20411;-57
2023/04/19 10:10:05;;;;;;;16.52;9.88;;;;;;;;;;5039032;28;20463;-57
2023/04/19 10:12:31;;;;;;;14.75;9.65;;;;;;;;;;5043011;28;20501;-57
2023/04/19 10:14:57;;;;;;;16.77;10.20;;;;;;;;;;5040900;28;20052;-56
2023/04/19 10:17:24;;;;;;;19.98;10.65;;;;;;;;;;5042435;28;20040;-55
2023/04/19 10:20:05;;;;;;;18.23;9.82;;;;;;;;;;5036537;28;20479;-58
2023/04/19 10:22:34;;;;;;;16.10;9.85;;;;;;;;;;5035770;28;20029;-57
2023/04/19 10:25:11;;;;;;;17.02;10.35;;;;;;;;;;5040064;28;20056;-57
2023/04/19 10:27:39;;;;;;;18.88;9.85;;;;;;;;;;5041283;28;20033;-57
2023/04/19 10:30:15;;;;;;;17.60;10.43;;;;;;;;;;5038777;28;20423;-57
2023/04/19 10:32:42;;;;;;;17.40;10.25;;;;;;;;;;5040805;28;20037;-58
2023/04/19 10:35:10;;;;;;;16.40;10.20;;;;;;;;;;5045767;28;20037;-57
2023/04/19 10:37:40;;;;;;;15.60;10.05;;;;;;;;;;5042961;28;20040;-56
2023/04/19 10:40:07;;;;;;;17.55;10.57;;;;;;;;;;5044502;28;20049;-57
2023/04/19 10:43:11;;;;;;;15.48;9.80;;;;;;;;;;5040087;28;20408;-57
2023/04/19 10:45:37;;;;;;;17.45;10.30;;;;;;;;;;5036825;28;20042;-56
2023/04/19 10:48:04;;;;;;;16.67;9.93;;;;;;;;;;5033807;28;20395;-57
2023/04/19 10:50:56;;;;;;;15.35;9.98;;;;;;;;;;5041440;28;20040;-57
2023/04/19 10:53:50;;;;;;;15.80;9.70;;;;;;;;;;5045411;28;20060;-56
2023/04/19 10:56:40;;;;;;;16.77;8.95;;;;;;;;;;5050645;28;20036;-56
2023/04/19 10:59:12;;;;;;;14.80;9.90;;;;;;;;;;5044393;28;21728;-57
2023/04/19 11:02:26;;;;;;;16.92;9.70;;;;;;;;;;5045999;28;20045;-57
2023/04/19 11:04:52;;;;;;;24.38;10.23;;;;;;;;;;5050437;28;20041;-56
2023/04/19 11:07:20;;;;;;;16.13;9.38;;;;;;;;;;5044288;28;20033;-56
2023/04/19 11:09:47;;;;;;;15.18;8.90;;;;;;;;;;5046030;28;20380;-57
2023/04/19 11:12:15;;;;;;;12.63;8.05;;;;;;;;;;5044996;28;20056;-58
2023/04/19 11:14:43;;;;;;;12.95;8.55;;;;;;;;;;5044581;28;20429;-58
2023/04/19 11:17:24;;;;;;;16.25;9.45;;;;;;;;;;5043114;28;20064;-57
2023/04/19 11:19:54;;;;;;;16.33;8.82;;;;;;;;;;5040243;28;20391;-57
2023/04/19 11:22:31;;;;;;;14.52;8.57;;;;;;;;;;5038121;28;20044;-57
2023/04/19 11:25:18;;;;;;;15.15;9.55;;;;;;;;;;5034646;28;20045;-58
2023/04/19 11:27:49;;;;;;;12.50;8.35;;;;;;;;;;5045583;28;20394;-58
2023/04/19 11:30:18;;;;;;;16.67;9.85;;;;;;;;;;5052796;28;20068;-58
2023/04/19 11:32:45;;;;;;;14.70;8.82;;;;;;;;;;5050347;28;20028;-58
2023/04/19 11:35:11;;;;;;;18.02;9.88;;;;;;;;;;5041148;28;20041;-58
2023/04/19 11:37:38;;;;;;;17.58;9.50;;;;;;;;;;5035148;28;20037;-58
2023/04/19 11:40:08;;;;;;;18.42;8.88;;;;;;;;;;5044326;28;20394;-58
2023/04/19 11:42:35;;;;;;;15.65;9.05;;;;;;;;;;5040501;28;20029;-58
2023/04/19 11:45:01;;;;;;;14.75;8.93;;;;;;;;;;5045177;28;20037;-58
2023/04/19 11:47:27;;;;;;;14.25;9.20;;;;;;;;;;5046904;28;20038;-58
2023/04/19 11:49:57;;;;;;;14.90;9.43;;;;;;;;;;5041468;28;20049;-58
2023/04/19 11:52:25;;;;;;;14.10;8.93;;;;;;;;;;5043729;28;20040;-58
2023/04/19 11:54:52;;;;;;;14.68;8.90;;;;;;;;;;5041534;28;20041;-58
2023/04/19 11:57:29;;;;;;;17.05;9.60;;;;;;;;;;5041225;28;20551;-58
2023/04/19 12:00:11;;;;;;;14.45;9.13;;;;;;;;;;5045761;28;20064;-56
2023/04/19 12:02:42;;;;;;;16.20;9.15;;;;;;;;;;5043134;28;20028;-57
2023/04/19 12:05:13;;;;;;;14.30;9.57;;;;;;;;;;5036703;28;20056;-58
2023/04/19 12:08:02;;;;;;;13.18;9.68;;;;;;;;;;5036742;28;20048;-57
2023/04/19 12:10:29;;;;;;;13.85;9.38;;;;;;;;;;5036898;28;20099;-57
2023/04/19 12:12:56;;;;;;;13.75;8.88;;;;;;;;;;5039174;28;20029;-57
2023/04/19 12:15:23;;;;;;;15.80;9.68;;;;;;;;;;5046521;28;20391;-56
2023/04/19 12:18:00;;;;;;;13.07;9.10;;;;;;;;;;5047804;28;20036;-55
2023/04/19 12:20:35;;;;;;;18.40;9.77;;;;;;;;;;5046175;28;20029;-56
2023/04/19 12:23:02;;;;;;;21.67;9.43;;;;;;;;;;5038773;28;20093;-57
2023/04/19 12:25:30;;;;;;;16.40;9.90;;;;;;;;;;5041457;28;20399;-57
2023/04/19 12:27:56;;;;;;;15.50;8.73;;;;;;;;;;5045508;28;20064;-56
2023/04/19 12:30:23;;;;;;;16.40;9.75;;;;;;;;;;5038430;28;20040;-57
2023/04/19 12:32:51;;;;;;;14.15;9.23;;;;;;;;;;5042612;28;20545;-57
2023/04/19 12:35:17;;;;;;;13.05;8.77;;;;;;;;;;5035018;28;20059;-57
2023/04/19 12:37:44;;;;;;;17.00;9.70;;;;;;;;;;5037153;28;20020;-56
2023/04/19 12:40:11;;;;;;;14.63;9.45;;;;;;;;;;5039687;28;20427;-57
2023/04/19 12:42:37;;;;;;;16.27;9.52;;;;;;;;;;5049817;28;20064;-57
2023/04/19 12:45:04;;;;;;;17.75;10.27;;;;;;;;;;5047738;28;20041;-57
2023/04/19 12:47:30;;;;;;;17.83;9.93;;;;;;;;;;5041156;28;20033;-56
2023/04/19 12:49:56;;;;;;;17.70;10.18;;;;;;;;;;5040550;28;20053;-56
2023/04/19 12:52:23;;;;;;;20.30;10.70;;;;;;;;;;5046651;28;20029;-57
2023/04/19 12:54:49;;;;;;;16.48;10.13;;;;;;;;;;5040773;28;20036;-57
2023/04/19 12:57:15;;;;;;;17.95;10.65;;;;;;;;;;5043482;28;20040;-56
2023/04/19 12:59:42;;;;;;;16.88;10.90;;;;;;;;;;5040099;28;20033;-56
2023/04/19 13:02:08;;;;;;;17.48;10.00;;;;;;;;;;5046156;28;20040;-56
2023/04/19 13:04:35;;;;;;;18.20;10.85;;;;;;;;;;5043964;28;20045;-56
2023/04/19 13:07:01;;;;;;;18.10;10.95;;;;;;;;;;5045571;28;20104;-56
2023/04/19 13:09:27;;;;;;;16.58;10.60;;;;;;;;;;5033015;28;20057;-57
2023/04/19 13:11:54;;;;;;;16.75;10.70;;;;;;;;;;5039836;28;20048;-57
2023/04/19 13:14:20;;;;;;;17.73;10.43;;;;;;;;;;5041014;28;20037;-57
2023/04/19 13:16:46;;;;;;;16.95;10.43;;;;;;;;;;5040195;28;20427;-56
2023/04/19 13:19:12;;;;;;;19.42;11.68;;;;;;;;;;5039622;28;20052;-56
2023/04/19 13:21:38;;;;;;;19.33;12.13;;;;;;;;;;5040227;28;20041;-56
2023/04/19 13:24:05;;;;;;;18.17;11.65;;;;;;;;;;5039306;28;20051;-57
2023/04/19 13:26:33;;;;;;;22.35;12.63;;;;;;;;;;5036399;28;20033;-57
2023/04/19 13:28:59;;;;;;;22.02;12.98;;;;;;;;;;5033752;28;20033;-57
2023/04/19 13:31:26;;;;;;;21.55;13.02;;;;;;;;;;5038965;28;20054;-57
2023/04/19 13:33:53;;;;;;;23.55;13.13;;;;;;;;;;5036370;28;20049;-57
2023/04/19 13:36:20;;;;;;;23.55;13.05;;;;;;;;;;5044072;28;20040;-57
2023/04/19 13:38:46;;;;;;;23.48;13.98;;;;;;;;;;5045335;28;20033;-57
2023/04/19 13:41:13;;;;;;;22.33;13.32;;;;;;;;;;5039763;28;20033;-57
2023/04/19 13:43:39;;;;;;;23.98;14.10;;;;;;;;;;5044586;28;20048;-57
2023/04/19 13:46:05;;;;;;;24.40;14.02;;;;;;;;;;5043958;28;20037;-57
2023/04/19 13:48:32;;;;;;;22.48;13.98;;;;;;;;;;5047475;28;20032;-57
2023/04/19 13:50:58;;;;;;;28.27;14.68;;;;;;;;;;5044794;28;20067;-58
2023/04/19 13:53:26;;;;;;;24.75;14.13;;;;;;;;;;5047183;28;20033;-58
2023/04/19 13:55:52;;;;;;;26.02;14.82;;;;;;;;;;5044299;28;20399;-58
2023/04/19 13:58:18;;;;;;;22.58;13.52;;;;;;;;;;5046182;28;20037;-58
2023/04/19 14:00:44;;;;;;;22.95;13.07;;;;;;;;;;5042380;28;20044;-58
2023/04/19 14:03:10;;;;;;;21.17;12.77;;;;;;;;;;5045412;28;20517;-59
2023/04/19 14:05:36;;;;;;;22.60;12.40;;;;;;;;;;5038790;28;20384;-58
2023/04/19 14:08:03;;;;;;;19.52;11.82;;;;;;;;;;5039997;28;20044;-58
2023/04/19 14:10:29;;;;;;;21.20;12.90;;;;;;;;;;5042040;28;20036;-58
2023/04/19 14:12:55;;;;;;;25.33;13.77;;;;;;;;;;5039753;28;20601;-58
2023/04/19 14:15:24;;;;;;;23.85;13.60;;;;;;;;;;5040120;28;20036;-58
2023/04/19 14:17:51;;;;;;;21.63;12.15;;;;;;;;;;5042555;28;20707;-58
2023/04/19 14:20:17;;;;;;;25.75;15.25;;;;;;;;;;5044284;28;20052;-58
2023/04/19 14:22:44;;;;;;;18.42;10.93;;;;;;;;;;5042035;28;20044;-58
2023/04/19 14:25:11;;;;;;;28.98;16.42;;;;;;;;;;5044356;28;20036;-58